Live Audio



buiten  Outside


The Shack  The Shack


Woonkamer  Woonkamer


The Shack 2  The Shack 2


Onweer radar Meer informatie blitzortung!


Regen radar Meer informatie rain snow radar


Bezoek onze andere website:

Template - Daily NOAA Satelite Images



Het weer levert geen direct gevaar op.    Er zijn geen waarschuwingen afgegeven.

METAR rapporten vliegvelden

   
EHAM - Amsterdam/Schiph, Netherlands
Afstand tot: OZO 26 km
Gewijzigd: 18-10-2018 06:55
Licht bewolkt  
Licht bewolkt  
   Wind: Noorden 9.3 km/h
Wind: Noorden 9.3 km/h
Temperatuur: 13°C
Dauwpunt: 11°C
Vochtigheid: 88%
Barometer: 1023 hPa
Bewolking: Few Clouds
Zicht: More then 10 km
Bewolking: Licht bewolkt 1219.2 m
EHAM 180455Z 01005KT 330V040 9999 FEW040 13/11 Q1023 NOSIG
EHRD - Rotterdam Airpor, Netherlands
Afstand tot: Z 50 km
Gewijzigd: 18-10-2018 06:55
Bewolking  
Bewolking  
   Wind: NNO 11.1 km/h
Wind: NNO 11.1 km/h
Temperatuur: 14°C
Dauwpunt: 11°C
Vochtigheid: 82%
Barometer: 1023 hPa
Bewolking: Overcast
Zicht: More then 10 km
Bewolking: Bewolking 1036.3 m
EHRD 180455Z AUTO 02006KT 340V060 9999 OVC034 14/11 Q1023 NOSIG
EHQE - Hoorn-A Sea, Netherlands
Afstand tot: NNW 60 km
Gewijzigd: 18-10-2018 06:55
Grotendeels bewolkt  
Grotendeels bewolkt  
   Wind: Noorden 29.6 km/h
Wind: Noorden 29.6 km/h
Temperatuur: 14°C
Dauwpunt: 9°C
Vochtigheid: 72%
Barometer: 1024 hPa
Bewolking: Mostly Cloudy
Zicht: More then 10 km
Bewolking: Licht bewolkt 487.7 m,
Gedeeltelijk bewolkt 701 m,
Grotendeels bewolkt 823 m
EHQE 180455Z AUTO 36016KT 9999 FEW016 SCT023 BKN027 14/09 Q1024 W///H///
EHKD - De Kooy (navy), Netherlands
Afstand tot: NNO 61 km
Gewijzigd: 18-10-2018 07:15
Grotendeels bewolkt  
Grotendeels bewolkt  
   Wind: Noorden 9.3 km/h
Wind: Noorden 9.3 km/h
Temperatuur: 13°C
Dauwpunt: 11°C
Vochtigheid: 88%
Barometer: 1024 hPa
Bewolking: Mostly Cloudy
Zicht: More then 10 km
Bewolking: Licht bewolkt 548.6 m,
Gedeeltelijk bewolkt 670.6 m,
Grotendeels bewolkt 823 m
EHKD 180515Z AUTO 36005KT 300V040 9999 FEW018 SCT022 BKN027 13/11 Q1024 WHT 35008KT 9999 SCT020
EHPG - P11-B Sea, Netherlands
Afstand tot: W 73 km
Gewijzigd: 18-10-2018 06:55
Gedeeltelijk bewolkt  
Gedeeltelijk bewolkt  
   Wind: Noorden 20.4 km/h
Wind: Noorden 20.4 km/h
Temperatuur: 15°C
Dauwpunt: 10°C
Vochtigheid: 72%
Barometer: 1024 hPa
Bewolking: Partly Cloudy
Zicht: More then 10 km
Bewolking: Licht bewolkt 579.1 m,
Gedeeltelijk bewolkt 701 m
EHPG 180455Z AUTO 01011KT 300V050 9999 FEW019 SCT023 15/10 Q1024 W///H///
EHSC - Goeree Le Sea, Netherlands
Afstand tot: ZW 74 km
Gewijzigd: 18-10-2018 06:55
  
  
   Wind: NNO 33.3 km/h
Wind: NNO 33.3 km/h
Temperatuur: 15°C
Dauwpunt: 10°C
Vochtigheid: 72%
Barometer: 1023 hPa
Zicht: More then 10 km
EHSC 180455Z AUTO 03018KT 9999 ///////// 15/10 Q1023 W17/H8

Script ontwikkeld door  Saratoga-weather.org Aangepast voor de template door  Weerstation Leuven

U vindt ons ook hier:

Het Weer Aktueel

UK Metoffice

Weather Underground

AWEKAS

HAMweather, WeatherForYou, PWS Weather

Apparatuur in gebruik:

Weerstation
Davis VP2

Weerprogramma
Weather Display

Weercomputer
Paradigit

Webleverancier
Mijn provider

Davis VP2

Weather Display

Paradigit

Mijn provider